createdAt,value
2022-08-18T00:04:57.949Z,63.49
2022-08-18T00:10:02.202Z,63.55
2022-08-18T00:15:08.758Z,63.98
2022-08-18T00:20:14.777Z,63.78
2022-08-18T00:25:19.245Z,64.07
2022-08-18T00:30:23.599Z,63.92
2022-08-18T00:35:29.344Z,63.85
2022-08-18T00:40:37.965Z,64.07
2022-08-18T00:45:43.909Z,64.03
2022-08-18T00:50:52.967Z,64.32
2022-08-18T00:55:57.747Z,64.32
2022-08-18T01:01:05.907Z,64.41
2022-08-18T01:06:16.395Z,64.51
2022-08-18T01:11:19.286Z,64.41
2022-08-18T01:16:41.271Z,64.86
2022-08-18T01:22:07.971Z,64.76
2022-08-18T01:27:17.846Z,64.40
2022-08-18T01:32:24.187Z,64.67
2022-08-18T01:37:26.942Z,64.42
2022-08-18T01:42:31.052Z,64.38
2022-08-18T01:47:47.739Z,64.20
2022-08-18T01:52:57.577Z,64.54
2022-08-18T01:58:01.761Z,64.48
2022-08-18T02:03:08.721Z,64.81
2022-08-18T02:08:15.431Z,64.52
2022-08-18T02:13:19.838Z,64.51
2022-08-18T02:18:41.514Z,64.47
2022-08-18T02:23:53.518Z,64.64
2022-08-18T02:28:58.535Z,64.76
2022-08-18T02:34:01.266Z,64.87
2022-08-18T02:39:04.890Z,64.55
2022-08-18T02:44:09.774Z,64.59
2022-08-18T02:49:13.170Z,64.49
2022-08-18T02:54:16.031Z,64.66
2022-08-18T02:59:24.187Z,64.48
2022-08-18T03:04:30.769Z,64.34
2022-08-18T03:09:35.374Z,64.39
2022-08-18T03:14:40.404Z,64.59
2022-08-18T03:19:44.977Z,64.31
2022-08-18T03:24:50.524Z,63.83
2022-08-18T03:29:54.865Z,63.50
2022-08-18T03:34:57.626Z,63.27
2022-08-18T03:40:00.440Z,63.61
2022-08-18T03:45:13.160Z,63.46
2022-08-18T03:50:21.741Z,63.11
2022-08-18T03:55:24.454Z,65.79
2022-08-18T04:00:28.823Z,65.77
2022-08-18T04:05:32.317Z,65.52
2022-08-18T04:10:36.536Z,65.29
2022-08-18T04:15:40.596Z,65.38
2022-08-18T04:20:59.471Z,65.51
2022-08-18T04:26:04.076Z,66.81
2022-08-18T04:31:10.389Z,67.18
2022-08-18T04:36:18.718Z,67.68
2022-08-18T04:41:26.931Z,68.99
2022-08-18T04:46:32.054Z,68.71
2022-08-18T04:52:26.720Z,69.31
2022-08-18T04:56:57.995Z,69.26
2022-08-18T05:02:05.573Z,69.29
2022-08-18T05:07:10.615Z,69.35
2022-08-18T05:12:15.421Z,70.00
2022-08-18T05:17:19.527Z,69.37
2022-08-18T05:22:24.288Z,69.81
2022-08-18T05:27:36.243Z,70.41
2022-08-18T05:32:48.531Z,69.15
2022-08-18T05:38:15.662Z,69.12
2022-08-18T05:43:18.568Z,68.67
2022-08-18T05:48:22.776Z,68.41
2022-08-18T05:53:45.551Z,68.18
2022-08-18T05:58:57.392Z,67.73
2022-08-18T06:04:06.993Z,68.24
2022-08-18T06:09:14.684Z,68.24
2022-08-18T06:14:17.828Z,68.79
2022-08-18T06:19:37.266Z,67.37
2022-08-18T06:24:48.273Z,66.39
2022-08-18T06:30:05.126Z,66.32
2022-08-18T06:35:19.024Z,65.75
2022-08-18T06:40:21.750Z,65.96
2022-08-18T06:45:33.994Z,66.18
2022-08-18T06:50:51.273Z,65.54
2022-08-18T06:55:54.062Z,66.14
2022-08-18T07:01:01.595Z,66.16
2022-08-18T07:06:10.371Z,66.64
2022-08-18T07:11:20.741Z,67.04
2022-08-18T07:16:54.922Z,66.97
2022-08-18T07:22:05.212Z,66.36
2022-08-18T07:27:10.816Z,66.70
2022-08-18T07:32:22.012Z,66.24
2022-08-18T07:37:30.440Z,65.75
2022-08-18T07:43:00.587Z,65.92
2022-08-18T07:48:27.271Z,65.74
2022-08-18T07:53:55.817Z,66.21
2022-08-18T07:59:08.289Z,65.78
2022-08-18T08:04:25.813Z,66.31
2022-08-18T08:09:53.974Z,66.28
2022-08-18T08:15:06.471Z,66.06
2022-08-18T08:20:23.229Z,65.93
2022-08-18T08:25:46.894Z,66.63
2022-08-18T08:31:13.578Z,66.12
2022-08-18T08:36:28.630Z,66.26
2022-08-18T08:41:39.535Z,66.04
2022-08-18T08:46:48.326Z,66.33
2022-08-18T08:51:57.941Z,66.08
2022-08-18T08:57:04.385Z,66.22
2022-08-18T09:02:47.818Z,66.23
2022-08-18T09:08:21.339Z,66.45
2022-08-18T09:14:11.270Z,66.17
2022-08-18T09:19:47.439Z,66.15
2022-08-18T09:24:52.779Z,66.11
2022-08-18T09:29:59.230Z,66.25
2022-08-18T09:35:14.531Z,66.27
2022-08-18T09:41:02.074Z,66.08
2022-08-18T09:46:06.235Z,65.93
2022-08-18T09:51:34.279Z,66.35
2022-08-18T09:57:21.497Z,66.32
2022-08-18T10:03:13.535Z,66.13
2022-08-18T10:08:52.625Z,66.08
2022-08-18T10:14:09.752Z,66.83
2022-08-18T10:19:34.003Z,67.33
2022-08-18T10:24:53.790Z,67.78
2022-08-18T10:29:58.656Z,67.85
2022-08-18T10:35:01.404Z,68.34
2022-08-18T10:40:21.186Z,68.75
2022-08-18T10:45:30.089Z,69.01
2022-08-18T10:50:42.961Z,69.07
2022-08-18T10:55:52.438Z,68.90
2022-08-18T11:01:11.488Z,68.86
2022-08-18T11:06:21.483Z,68.62
2022-08-18T11:11:36.992Z,68.64
2022-08-18T11:16:54.590Z,68.72
2022-08-18T11:21:57.493Z,68.74
2022-08-18T11:27:03.762Z,68.53
2022-08-18T11:32:20.767Z,68.42
2022-08-18T11:37:48.907Z,68.61
2022-08-18T11:42:57.221Z,68.46
2022-08-18T11:48:03.081Z,68.36
2022-08-18T11:53:18.816Z,68.31
2022-08-18T11:58:41.389Z,68.28
2022-08-18T12:03:49.134Z,68.41
2022-08-18T12:08:58.800Z,68.14
2022-08-18T12:14:32.209Z,68.19
2022-08-18T12:19:34.273Z,68.12
2022-08-18T12:24:39.502Z,68.19
2022-08-18T12:29:44.785Z,68.10
2022-08-18T12:34:48.109Z,68.04
2022-08-18T12:39:51.347Z,67.93
2022-08-18T12:44:55.511Z,67.84
2022-08-18T12:49:58.375Z,67.84
2022-08-18T12:55:04.840Z,67.92
2022-08-18T13:05:35.860Z,68.38
2022-08-18T13:10:45.550Z,68.50
2022-08-18T13:15:57.957Z,69.15
2022-08-18T13:21:03.145Z,69.52
2022-08-18T13:26:09.355Z,69.76
2022-08-18T13:31:14.008Z,70.00
2022-08-18T13:36:17.013Z,69.55
2022-08-18T13:41:20.279Z,69.42
2022-08-18T13:46:30.935Z,69.43
2022-08-18T13:51:34.310Z,69.44
2022-08-18T13:56:37.259Z,69.30
2022-08-18T14:01:52.512Z,69.58
2022-08-18T14:06:59.036Z,69.85
2022-08-18T14:12:05.834Z,69.94
2022-08-18T14:17:10.202Z,70.26
2022-08-18T14:22:39.191Z,70.39
2022-08-18T14:27:42.339Z,70.59
2022-08-18T14:33:00.711Z,71.13
2022-08-18T14:38:05.644Z,71.09
2022-08-18T14:43:09.051Z,71.32
2022-08-18T14:48:14.312Z,71.23
2022-08-18T14:53:20.096Z,71.06
2022-08-18T14:58:29.091Z,71.38
2022-08-18T15:03:33.436Z,70.60
2022-08-18T15:08:37.478Z,71.07
2022-08-18T15:13:43.451Z,70.39
2022-08-18T15:18:49.588Z,70.02
2022-08-18T15:24:15.048Z,69.95
2022-08-18T15:29:28.933Z,69.78
2022-08-18T15:34:46.115Z,69.67
2022-08-18T15:39:51.701Z,69.74
2022-08-18T15:45:11.507Z,69.95
2022-08-18T15:50:25.255Z,70.22
2022-08-18T15:55:35.881Z,70.50
2022-08-18T16:00:45.570Z,70.74
2022-08-18T16:05:53.696Z,70.92
2022-08-18T16:10:57.125Z,70.56
2022-08-18T16:16:00.946Z,70.81
2022-08-18T16:21:08.049Z,70.62
2022-08-18T16:31:26.488Z,71.04
2022-08-18T16:36:30.701Z,71.30
2022-08-18T16:41:33.827Z,70.85
2022-08-18T16:46:37.588Z,70.50
2022-08-18T16:51:45.530Z,71.09
2022-08-18T16:56:48.336Z,66.20
2022-08-18T17:02:08.544Z,66.16
2022-08-18T17:07:12.746Z,65.44
2022-08-18T17:12:15.478Z,64.98
2022-08-18T17:17:18.696Z,65.17
2022-08-18T17:22:23.745Z,65.51
2022-08-18T17:27:37.341Z,64.84
2022-08-18T17:32:46.597Z,64.48
2022-08-18T17:37:59.366Z,64.28
2022-08-18T17:43:02.729Z,65.25
2022-08-18T17:48:11.817Z,65.78
2022-08-18T17:53:17.938Z,66.25
2022-08-18T17:58:27.257Z,66.05
2022-08-18T18:03:30.069Z,66.50
2022-08-18T18:08:51.909Z,66.59
2022-08-18T18:13:55.401Z,67.66
2022-08-18T18:19:02.841Z,68.50
2022-08-18T18:24:29.972Z,69.31
2022-08-18T18:29:38.016Z,70.29
2022-08-18T18:34:46.441Z,70.82
2022-08-18T18:39:56.999Z,71.55
2022-08-18T18:45:02.730Z,70.92
2022-08-18T18:50:10.278Z,70.67
2022-08-18T18:55:18.394Z,69.75
2022-08-18T19:00:29.939Z,69.32
2022-08-18T19:05:38.556Z,69.18
2022-08-18T19:10:50.253Z,70.20
2022-08-18T19:15:58.564Z,70.65
2022-08-18T19:22:04.587Z,70.47
2022-08-18T19:26:34.512Z,70.55
2022-08-18T19:31:40.998Z,70.35
2022-08-18T19:36:49.366Z,70.59
2022-08-18T19:41:59.811Z,69.86
2022-08-18T19:47:09.956Z,69.73
2022-08-18T19:52:56.064Z,69.26
2022-08-18T19:58:10.912Z,69.31
2022-08-18T20:03:35.588Z,69.73
2022-08-18T20:09:10.254Z,69.65
2022-08-18T20:14:18.850Z,70.29
2022-08-18T20:19:43.909Z,70.70
2022-08-18T20:24:53.030Z,71.86
2022-08-18T20:30:29.202Z,72.46
2022-08-18T20:35:37.585Z,74.86
2022-08-18T20:40:45.001Z,74.82
2022-08-18T20:45:55.146Z,75.22
2022-08-18T20:51:09.320Z,76.30
2022-08-18T20:56:32.189Z,77.61
2022-08-18T21:01:40.647Z,78.60
2022-08-18T21:06:44.657Z,77.74
2022-08-18T21:11:49.139Z,77.15
2022-08-18T21:16:53.473Z,76.70
2022-08-18T21:21:58.883Z,76.43
2022-08-18T21:27:06.807Z,77.71
2022-08-18T21:32:14.232Z,77.31
2022-08-18T21:37:19.250Z,76.67
2022-08-18T21:42:26.077Z,76.99
2022-08-18T21:47:33.615Z,76.89
2022-08-18T21:52:38.655Z,77.64
2022-08-18T21:57:52.198Z,77.43
2022-08-18T22:08:29.625Z,76.59
2022-08-18T22:14:02.107Z,75.48
2022-08-18T22:19:08.865Z,75.19
2022-08-18T22:24:21.904Z,75.89
2022-08-18T22:29:32.595Z,75.43
2022-08-18T22:34:36.055Z,75.32
2022-08-18T22:39:44.773Z,75.47
2022-08-18T22:44:48.182Z,75.58
2022-08-18T22:49:51.168Z,76.70
2022-08-18T22:54:55.375Z,77.70
2022-08-18T22:59:58.199Z,79.56
2022-08-18T23:05:03.173Z,80.17
2022-08-18T23:10:13.961Z,80.62
2022-08-18T23:15:18.789Z,79.96
2022-08-18T23:20:21.535Z,80.54
2022-08-18T23:25:30.860Z,79.97
2022-08-18T23:30:34.938Z,79.25
2022-08-18T23:35:38.664Z,80.20
2022-08-18T23:40:45.154Z,80.95
2022-08-18T23:45:49.860Z,81.34
2022-08-18T23:50:52.621Z,81.49
2022-08-18T23:55:56.768Z,81.48
